Time;durP1;ratioP1;P1;durP2;ratioP2;P2;SDS_P1;SDS_P2;PMS_P1;PMS_P2;Temp;Humidity;BMP_temperature;BMP_pressure;BME280_temperature;BME280_humidity;BME280_pressure;Samples;Min_cycle;Max_cycle;Signal;HPM_P1;HPM_P2
2021/03/25 00:01:38;;;;;;;63.33;33.57;;;5.80;89.90;;;;;;4950530;28;20234;-83
2021/03/25 00:04:07;;;;;;;63.30;34.70;;;5.90;90.20;;;;;;4968700;28;20759;-83
2021/03/25 00:06:37;;;;;;;63.77;35.77;;;5.90;90.30;;;;;;4979285;28;20233;-82
2021/03/25 00:09:07;;;;;;;61.43;34.73;;;5.70;90.40;;;;;;4958797;28;20230;-82
2021/03/25 00:11:37;;;;;;;61.13;33.33;;;5.90;90.40;;;;;;4966271;28;20275;-83
2021/03/25 00:14:05;;;;;;;56.10;31.53;;;5.80;90.40;;;;;;4970190;28;20213;-81
2021/03/25 00:16:32;;;;;;;59.40;31.93;;;5.90;90.40;;;;;;4967578;28;20639;-84
2021/03/25 00:19:00;;;;;;;63.43;32.97;;;5.90;90.30;;;;;;4974115;28;20202;-84
2021/03/25 00:21:29;;;;;;;55.23;31.27;;;5.90;90.30;;;;;;4983911;28;20208;-83
2021/03/25 00:23:57;;;;;;;57.90;31.63;;;5.90;90.30;;;;;;4967336;28;20218;-84
2021/03/25 00:26:25;;;;;;;51.93;30.30;;;5.90;90.30;;;;;;4973269;28;20208;-83
2021/03/25 00:28:53;;;;;;;55.47;31.30;;;5.90;90.30;;;;;;4972899;28;20907;-83
2021/03/25 00:31:20;;;;;;;51.53;29.30;;;5.90;90.20;;;;;;4981881;28;20198;-82
2021/03/25 00:33:48;;;;;;;53.07;28.90;;;5.90;90.00;;;;;;4983585;28;20219;-83
2021/03/25 00:36:21;;;;;;;52.37;27.73;;;5.90;89.60;;;;;;4985246;28;20206;-83
2021/03/25 00:38:50;;;;;;;54.83;28.37;;;5.90;89.60;;;;;;4976829;28;20300;-85
2021/03/25 00:41:18;;;;;;;49.30;27.37;;;5.90;89.40;;;;;;4975116;28;20220;-83
2021/03/25 00:43:46;;;;;;;51.80;27.70;;;5.90;89.30;;;;;;4970912;28;20918;-83
2021/03/25 00:46:14;;;;;;;47.80;26.87;;;5.90;89.30;;;;;;4971322;28;20210;-84
2021/03/25 00:48:42;;;;;;;53.33;28.47;;;5.90;89.10;;;;;;4970942;28;20231;-82
2021/03/25 00:51:10;;;;;;;54.13;27.23;;;5.90;88.80;;;;;;5008439;23;20225;-84
2021/03/25 00:53:38;;;;;;;46.60;24.97;;;5.80;88.70;;;;;;4966919;28;20485;-82
2021/03/25 00:56:08;;;;;;;45.57;24.77;;;5.90;88.60;;;;;;4976647;28;20188;-83
2021/03/25 00:58:36;;;;;;;45.30;25.40;;;5.90;87.90;;;;;;4967976;28;20193;-84
2021/03/25 01:01:07;;;;;;;47.13;26.13;;;5.90;87.60;;;;;;4989851;28;20207;-83
2021/03/25 01:03:36;;;;;;;47.60;25.57;;;5.90;87.60;;;;;;4981167;28;20584;-82
2021/03/25 01:06:04;;;;;;;41.60;23.00;;;6.00;87.40;;;;;;4986217;28;20291;-83
2021/03/25 01:08:32;;;;;;;41.80;23.87;;;6.00;86.90;;;;;;4982409;28;20232;-82
2021/03/25 01:11:08;;;;;;;43.80;24.50;;;6.00;86.70;;;;;;4992179;28;20192;-85
2021/03/25 01:13:39;;;;;;;41.53;23.23;;;6.00;86.60;;;;;;4991542;28;20547;-86
2021/03/25 01:16:10;;;;;;;42.10;23.60;;;6.00;86.20;;;;;;4988572;28;20201;-84
2021/03/25 01:18:38;;;;;;;43.07;23.33;;;5.90;86.20;;;;;;4970557;28;20205;-84
2021/03/25 01:21:06;;;;;;;41.13;21.87;;;6.00;85.80;;;;;;4971795;28;20209;-83
2021/03/25 01:23:35;;;;;;;40.57;22.27;;;6.00;85.60;;;;;;4969161;28;20200;-83
2021/03/25 01:26:03;;;;;;;41.97;23.23;;;6.10;85.40;;;;;;4984172;28;20492;-83
2021/03/25 01:28:32;;;;;;;42.10;23.03;;;6.10;85.40;;;;;;4984734;28;20205;-86
2021/03/25 01:31:00;;;;;;;45.30;23.53;;;6.00;85.50;;;;;;4977009;28;20217;-84
2021/03/25 01:33:28;;;;;;;45.80;23.87;;;6.00;85.60;;;;;;4972360;28;20220;-83
2021/03/25 01:35:55;;;;;;;42.77;22.90;;;5.90;85.60;;;;;;4959717;28;20208;-86
2021/03/25 01:38:24;;;;;;;41.80;23.13;;;5.90;85.60;;;;;;4967893;28;20210;-83
2021/03/25 01:40:55;;;;;;;36.00;22.33;;;5.90;85.80;;;;;;4962636;28;20661;-82
2021/03/25 01:43:28;;;;;;;45.50;24.77;;;5.90;85.80;;;;;;4963522;28;20206;-82
2021/03/25 01:46:00;;;;;;;41.27;23.53;;;5.90;85.80;;;;;;4966955;28;20205;-85
2021/03/25 01:48:35;;;;;;;42.00;23.17;;;5.80;85.70;;;;;;4962638;28;20209;-82
2021/03/25 01:51:06;;;;;;;40.73;23.23;;;5.80;86.00;;;;;;4964194;28;20234;-81
2021/03/25 01:53:58;;;;;;;40.13;23.37;;;5.80;86.10;;;;;;4961063;28;20211;-83
2021/03/25 01:56:50;;;;;;;39.90;22.70;;;5.80;86.10;;;;;;4962289;28;20206;-84
2021/03/25 01:59:46;;;;;;;42.57;22.97;;;5.90;85.80;;;;;;4954583;28;20557;-83
2021/03/25 02:02:19;;;;;;;43.60;23.03;;;5.90;85.70;;;;;;4989584;28;20492;-82
2021/03/25 02:04:58;;;;;;;41.87;21.83;;;5.90;85.90;;;;;;4975749;28;20651;-82
2021/03/25 02:07:40;;;;;;;39.50;21.37;;;5.90;85.90;;;;;;4979322;28;20205;-84
2021/03/25 02:10:14;;;;;;;40.73;22.27;;;5.80;85.80;;;;;;4993006;28;20210;-83
2021/03/25 02:12:54;;;;;;;40.00;21.20;;;5.80;85.50;;;;;;4974560;28;20678;-84
2021/03/25 02:15:33;;;;;;;41.00;21.40;;;5.80;84.90;;;;;;4963589;28;20579;-82
2021/03/25 02:18:10;;;;;;;36.50;21.37;;;5.90;84.80;;;;;;4976215;28;20203;-84
2021/03/25 02:21:14;;;;;;;39.50;21.70;;;5.90;84.80;;;;;;4954475;28;20209;-84
2021/03/25 02:24:11;;;;;;;36.37;20.60;;;6.00;84.60;;;;;;4985347;28;20207;-84
2021/03/25 02:26:43;;;;;;;38.07;21.70;;;5.80;84.80;;;;;;4990663;28;20224;-83
2021/03/25 02:29:34;;;;;;;37.20;22.10;;;5.80;84.80;;;;;;4984818;28;20228;-82
2021/03/25 02:32:07;;;;;;;36.87;21.17;;;5.80;84.70;;;;;;4993212;28;20223;-81
2021/03/25 02:34:39;;;;;;;40.00;21.30;;;5.70;84.90;;;;;;4989782;28;20626;-80
2021/03/25 02:37:10;;;;;;;38.10;21.67;;;5.80;85.20;;;;;;4991300;28;20407;-82
2021/03/25 02:39:44;;;;;;;38.10;20.80;;;5.70;85.00;;;;;;4990990;28;20287;-84
2021/03/25 02:42:16;;;;;;;40.43;21.77;;;5.70;85.10;;;;;;4988648;28;20644;-83
2021/03/25 02:44:49;;;;;;;36.60;20.47;;;5.70;85.20;;;;;;4991765;28;20272;-83
2021/03/25 02:47:20;;;;;;;42.77;21.93;;;5.80;85.10;;;;;;4996608;28;20205;-84
2021/03/25 02:49:54;;;;;;;36.80;20.43;;;5.70;84.90;;;;;;4985283;28;20204;-82
2021/03/25 02:52:25;;;;;;;37.67;21.17;;;5.80;84.90;;;;;;4992831;28;20198;-83
2021/03/25 02:54:53;;;;;;;40.87;22.70;;;5.80;84.70;;;;;;4983102;28;20674;-83
2021/03/25 02:57:26;;;;;;;40.23;22.60;;;6.00;84.70;;;;;;4973197;28;20482;-85
2021/03/25 02:59:58;;;;;;;42.00;22.97;;;6.00;84.60;;;;;;4969402;28;20315;-84
2021/03/25 03:02:34;;;;;;;38.77;22.47;;;5.90;84.80;;;;;;4975224;28;20203;-82
2021/03/25 03:05:05;;;;;;;41.67;23.67;;;5.90;84.50;;;;;;4985645;28;20196;-83
2021/03/25 03:07:40;;;;;;;39.00;22.33;;;6.00;84.50;;;;;;4969520;28;20236;-84
2021/03/25 03:10:11;;;;;;;38.67;22.37;;;5.80;84.50;;;;;;4988610;28;20227;-82
2021/03/25 03:12:45;;;;;;;45.03;23.47;;;5.80;84.70;;;;;;4986781;28;20214;-83
2021/03/25 03:15:17;;;;;;;42.33;23.80;;;5.80;84.90;;;;;;4973575;28;20200;-83
2021/03/25 03:17:50;;;;;;;41.47;22.63;;;5.80;85.10;;;;;;4969947;28;20216;-83
2021/03/25 03:20:23;;;;;;;44.90;23.73;;;5.80;85.10;;;;;;4963573;28;20435;-82
2021/03/25 03:22:52;;;;;;;43.23;24.10;;;5.80;85.10;;;;;;4971622;28;20314;-82
2021/03/25 03:25:24;;;;;;;47.40;25.43;;;5.80;85.20;;;;;;4970004;28;20197;-83
2021/03/25 03:27:57;;;;;;;45.13;25.43;;;5.80;85.20;;;;;;4952453;28;20208;-84
2021/03/25 03:30:28;;;;;;;44.97;25.47;;;6.00;85.80;;;;;;4968451;28;20774;-82
2021/03/25 03:33:03;;;;;;;44.07;25.23;;;5.80;85.80;;;;;;4972105;28;20211;-83
2021/03/25 03:35:35;;;;;;;45.13;25.07;;;5.80;86.20;;;;;;4974703;28;20272;-84
2021/03/25 03:38:09;;;;;;;47.27;26.33;;;5.70;86.00;;;;;;4953522;28;20205;-83
2021/03/25 03:40:42;;;;;;;47.83;27.50;;;5.70;86.00;;;;;;4972953;28;20209;-84
2021/03/25 03:43:15;;;;;;;46.50;27.30;;;5.70;86.40;;;;;;4968503;28;20251;-83
2021/03/25 03:45:48;;;;;;;51.00;27.53;;;5.60;86.60;;;;;;4969932;28;20317;-83
2021/03/25 03:48:24;;;;;;;49.80;26.20;;;5.60;86.50;;;;;;4973042;28;20204;-83
2021/03/25 03:50:57;;;;;;;52.97;26.67;;;5.60;86.80;;;;;;4983808;28;20243;-84
2021/03/25 03:53:26;;;;;;;54.70;27.67;;;5.70;87.00;;;;;;4991511;28;20185;-84
2021/03/25 03:56:01;;;;;;;50.87;28.00;;;5.70;86.90;;;;;;4982448;28;20200;-83
2021/03/25 03:58:38;;;;;;;55.43;28.83;;;5.60;87.00;;;;;;4955613;28;21105;-83
2021/03/25 04:01:09;;;;;;;53.37;27.83;;;5.70;87.30;;;;;;4967295;28;20204;-85
2021/03/25 04:03:40;;;;;;;49.57;27.57;;;5.60;87.50;;;;;;4980157;28;20207;-82
2021/03/25 04:06:11;;;;;;;55.57;29.67;;;5.70;87.60;;;;;;4979567;28;20192;-83
2021/03/25 04:08:44;;;;;;;49.93;28.63;;;5.70;87.80;;;;;;4982555;28;20201;-84
2021/03/25 04:11:16;;;;;;;55.17;29.90;;;5.70;87.70;;;;;;4981722;28;20374;-85
2021/03/25 04:13:49;;;;;;;57.73;30.17;;;5.70;87.80;;;;;;4982890;28;20219;-83
2021/03/25 04:16:22;;;;;;;56.23;30.10;;;5.70;87.70;;;;;;4987861;28;20197;-83
2021/03/25 04:18:56;;;;;;;58.73;30.03;;;5.80;87.80;;;;;;4983912;28;20319;-81
2021/03/25 04:21:27;;;;;;;52.37;29.17;;;5.80;87.70;;;;;;4988604;28;20185;-85
2021/03/25 04:23:57;;;;;;;53.93;30.30;;;5.70;87.90;;;;;;4986131;28;20217;-82
2021/03/25 04:26:30;;;;;;;53.50;29.23;;;5.90;88.30;;;;;;4983211;28;20196;-83
2021/03/25 04:29:02;;;;;;;53.23;29.37;;;5.70;88.10;;;;;;4994045;28;20211;-85
2021/03/25 04:31:30;;;;;;;57.73;29.60;;;5.70;88.20;;;;;;4989426;28;20534;-84
2021/03/25 04:34:00;;;;;;;53.20;29.10;;;5.70;88.20;;;;;;4990421;28;20209;-83
2021/03/25 04:36:33;;;;;;;56.20;31.73;;;5.60;88.80;;;;;;4998256;28;20459;-83
2021/03/25 04:39:06;;;;;;;54.20;29.60;;;5.60;89.00;;;;;;4991504;28;20216;-84
2021/03/25 04:41:36;;;;;;;52.23;29.97;;;5.50;89.30;;;;;;4973002;28;20228;-84
2021/03/25 04:44:16;;;;;;;56.63;30.60;;;5.60;89.80;;;;;;4990075;28;20239;-83
2021/03/25 04:46:51;;;;;;;60.73;31.07;;;5.50;90.00;;;;;;4992687;28;20187;-84
2021/03/25 04:49:31;;;;;;;55.07;29.73;;;5.50;90.00;;;;;;4991502;28;20181;-83
2021/03/25 04:52:00;;;;;;;58.27;30.90;;;5.40;89.80;;;;;;4993122;28;20224;-83
2021/03/25 04:54:32;;;;;;;55.07;30.43;;;5.40;89.70;;;;;;4990319;28;20197;-83
2021/03/25 04:57:06;;;;;;;60.93;32.37;;;5.40;89.90;;;;;;4989796;28;20176;-84
2021/03/25 04:59:37;;;;;;;59.53;30.90;;;5.40;90.30;;;;;;4991331;28;20212;-83
2021/03/25 05:02:07;;;;;;;56.77;31.30;;;5.50;90.30;;;;;;4988277;28;20204;-84
2021/03/25 05:04:40;;;;;;;59.43;30.93;;;5.60;90.10;;;;;;4988081;28;20470;-84
2021/03/25 05:07:09;;;;;;;59.20;31.27;;;5.60;90.00;;;;;;4991411;28;20212;-82
2021/03/25 05:09:37;;;;;;;57.20;32.80;;;5.60;90.00;;;;;;4989080;28;20238;-83
2021/03/25 05:12:06;;;;;;;57.57;31.33;;;5.60;89.80;;;;;;4996308;28;20510;-84
2021/03/25 05:14:34;;;;;;;56.97;30.60;;;5.80;89.80;;;;;;4988723;28;20192;-85
2021/03/25 05:17:11;;;;;;;58.47;31.43;;;5.60;89.70;;;;;;4973142;28;20192;-82
2021/03/25 05:19:54;;;;;;;58.43;31.20;;;5.60;89.80;;;;;;4989216;28;20280;-83
2021/03/25 05:22:29;;;;;;;59.37;31.83;;;5.60;89.90;;;;;;4988135;28;20178;-83
2021/03/25 05:25:05;;;;;;;62.30;31.93;;;5.70;89.80;;;;;;4991054;28;20200;-82
2021/03/25 05:27:39;;;;;;;60.03;32.73;;;5.60;89.70;;;;;;4992434;28;20196;-82
2021/03/25 05:30:14;;;;;;;63.67;32.30;;;5.60;89.70;;;;;;4989309;28;20243;-83
2021/03/25 05:32:45;;;;;;;57.43;31.27;;;5.60;89.90;;;;;;4990044;28;20192;-84
2021/03/25 05:35:17;;;;;;;61.23;32.03;;;5.70;90.00;;;;;;4997460;28;20199;-83
2021/03/25 05:37:47;;;;;;;61.23;33.23;;;5.90;90.00;;;;;;4976180;28;20526;-82
2021/03/25 05:40:22;;;;;;;62.17;33.00;;;5.70;89.80;;;;;;4991782;28;20193;-84
2021/03/25 05:42:58;;;;;;;58.63;32.40;;;5.70;89.80;;;;;;4994043;28;20213;-83
2021/03/25 05:45:41;;;;;;;58.33;31.37;;;5.70;89.80;;;;;;4987671;28;20193;-82
2021/03/25 05:48:43;;;;;;;62.40;34.13;;;5.80;89.80;;;;;;4976117;28;20218;-82
2021/03/25 05:51:26;;;;;;;66.23;32.00;;;5.80;90.00;;;;;;4991427;28;20555;-83
2021/03/25 05:54:12;;;;;;;56.57;32.70;;;5.90;89.80;;;;;;4988826;28;20411;-83
2021/03/25 05:56:55;;;;;;;67.60;33.10;;;5.90;89.70;;;;;;4988902;28;20204;-84
2021/03/25 05:59:27;;;;;;;67.13;32.87;;;5.90;89.40;;;;;;4992051;28;20187;-82
2021/03/25 06:02:04;;;;;;;61.17;32.43;;;5.90;89.50;;;;;;4979742;28;20218;-82
2021/03/25 06:04:35;;;;;;;61.10;32.87;;;6.00;89.00;;;;;;4986710;28;20221;-83
2021/03/25 06:07:41;;;;;;;60.63;32.43;;;6.00;88.90;;;;;;4993454;28;20406;-83
2021/03/25 06:10:21;;;;;;;61.37;33.00;;;6.10;89.00;;;;;;4967649;28;20246;-81
2021/03/25 06:13:00;;;;;;;58.47;31.90;;;6.10;88.80;;;;;;4969070;28;20386;-84
2021/03/25 06:15:48;;;;;;;56.90;31.57;;;6.10;88.80;;;;;;4979390;28;20223;-83
2021/03/25 06:18:33;;;;;;;57.83;32.87;;;6.10;88.70;;;;;;4956885;28;20209;-83
2021/03/25 06:21:07;;;;;;;58.57;33.67;;;6.20;88.40;;;;;;4972175;28;20206;-85
2021/03/25 06:24:01;;;;;;;64.10;32.37;;;6.20;88.30;;;;;;4982345;28;20196;-84
2021/03/25 06:26:38;;;;;;;58.13;31.47;;;6.20;88.30;;;;;;4988680;28;20266;-80
2021/03/25 06:29:29;;;;;;;60.53;31.00;;;6.30;88.10;;;;;;4987033;28;20213;-82
2021/03/25 06:32:03;;;;;;;59.23;31.57;;;6.30;87.70;;;;;;4998904;28;20204;-84
2021/03/25 06:34:39;;;;;;;59.23;31.83;;;6.30;87.70;;;;;;5109244;23;20230;-83
2021/03/25 06:37:33;;;;;;;60.97;31.73;;;6.30;87.80;;;;;;4978865;28;20187;-82
2021/03/25 06:40:18;;;;;;;57.83;31.17;;;6.30;87.70;;;;;;5086578;23;20246;-84
2021/03/25 06:42:55;;;;;;;61.97;31.20;;;6.30;87.60;;;;;;4975808;28;20226;-82
2021/03/25 06:48:40;;;;;;;58.40;31.60;;;6.40;87.50;;;;;;4989388;28;20209;-83
2021/03/25 06:51:26;;;;;;;54.93;30.40;;;6.40;87.40;;;;;;4987994;28;20247;-84
2021/03/25 06:54:13;;;;;;;58.17;30.20;;;6.50;87.50;;;;;;4993649;28;20202;-83
2021/03/25 06:56:53;;;;;;;63.07;31.37;;;6.50;87.60;;;;;;4974596;28;20215;-83
2021/03/25 06:59:39;;;;;;;53.77;31.07;;;6.60;87.60;;;;;;4989751;28;20194;-84
2021/03/25 07:02:20;;;;;;;57.83;31.00;;;6.60;87.40;;;;;;4989606;28;20218;-82
2021/03/25 07:04:52;;;;;;;58.93;31.63;;;6.60;87.30;;;;;;4988449;28;20306;-83
2021/03/25 07:07:28;;;;;;;51.13;29.10;;;6.70;87.30;;;;;;4981239;28;20264;-83
2021/03/25 07:09:58;;;;;;;59.70;31.43;;;6.60;87.10;;;;;;4977941;28;20256;-82
2021/03/25 07:19:00;;;;;;;55.70;30.33;;;6.70;87.00;;;;;;4993447;28;20216;-83
2021/03/25 07:21:56;;;;;;;57.67;30.57;;;6.70;87.10;;;;;;4989505;28;20206;-85
2021/03/25 07:27:35;;;;;;;58.37;29.57;;;6.80;87.10;;;;;;5045876;23;20604;-83
2021/03/25 07:33:59;;;;;;;55.90;30.03;;;6.90;86.60;;;;;;4987210;28;20274;-82
2021/03/25 07:36:52;;;;;;;58.13;31.20;;;7.00;86.70;;;;;;4991419;28;20264;-82
2021/03/25 07:55:32;;;;;;;51.93;29.87;;;7.60;85.80;;;;;;4993286;28;20264;-84
2021/03/25 08:01:49;;;;;;;53.03;29.33;;;7.70;85.30;;;;;;4991816;28;20190;-84
2021/03/25 08:07:19;;;;;;;50.43;28.37;;;7.70;84.80;;;;;;4993747;28;20201;-84
2021/03/25 08:15:47;;;;;;;53.50;29.17;;;7.70;84.50;;;;;;5364354;23;20241;-83
2021/03/25 08:18:43;;;;;;;55.07;31.00;;;7.80;84.40;;;;;;4962049;28;20201;-84
2021/03/25 08:21:42;;;;;;;54.60;28.43;;;7.90;84.40;;;;;;4957471;28;20201;-85
2021/03/25 08:24:46;;;;;;;50.30;27.50;;;8.10;84.40;;;;;;4968600;28;20214;-83
2021/03/25 08:27:30;;;;;;;53.10;27.50;;;8.10;83.80;;;;;;4955752;28;20205;-83
2021/03/25 08:30:18;;;;;;;52.27;27.90;;;8.00;83.60;;;;;;4964579;28;20237;-83
2021/03/25 08:33:10;;;;;;;47.30;27.17;;;7.90;83.30;;;;;;4973114;28;20216;-82
2021/03/25 08:35:48;;;;;;;48.47;27.63;;;7.80;83.20;;;;;;4966086;28;20284;-85
2021/03/25 08:38:48;;;;;;;51.63;29.10;;;7.80;83.20;;;;;;4968337;28;20203;-83
2021/03/25 08:41:43;;;;;;;49.83;28.20;;;7.90;83.10;;;;;;4958608;28;20212;-81
2021/03/25 08:44:32;;;;;;;50.43;28.90;;;8.10;83.10;;;;;;4970386;28;20342;-84
2021/03/25 08:47:15;;;;;;;50.90;28.67;;;8.20;82.60;;;;;;4959757;28;20197;-83
2021/03/25 08:49:59;;;;;;;53.33;30.07;;;8.30;82.70;;;;;;4960848;28;20523;-84
2021/03/25 08:52:33;;;;;;;51.03;29.30;;;8.30;82.70;;;;;;4959862;28;20237;-82
2021/03/25 08:55:23;;;;;;;53.63;29.37;;;8.60;82.60;;;;;;4959332;28;20197;-84
2021/03/25 08:58:15;;;;;;;53.47;28.23;;;8.70;82.00;;;;;;4964447;28;20584;-84
2021/03/25 09:00:51;;;;;;;54.93;29.63;;;8.80;82.20;;;;;;4960479;28;20224;-84
2021/03/25 09:03:32;;;;;;;49.40;29.40;;;8.90;81.90;;;;;;4962007;28;20197;-84
2021/03/25 09:06:15;;;;;;;51.53;29.07;;;9.10;81.90;;;;;;4965119;28;20211;-83
2021/03/25 09:08:45;;;;;;;48.50;28.63;;;9.00;81.60;;;;;;4955246;28;20536;-84
2021/03/25 09:11:16;;;;;;;52.63;28.73;;;9.00;81.70;;;;;;4946689;28;20258;-86
2021/03/25 09:13:51;;;;;;;47.90;28.60;;;9.00;81.60;;;;;;4952819;28;20208;-86
2021/03/25 09:16:23;;;;;;;48.80;28.40;;;9.10;81.70;;;;;;4950695;28;20208;-84
2021/03/25 09:18:53;;;;;;;52.60;29.10;;;9.30;81.40;;;;;;4946250;28;20212;-87
2021/03/25 09:21:25;;;;;;;46.67;28.07;;;9.30;81.30;;;;;;4952281;28;20211;-85
2021/03/25 09:24:11;;;;;;;48.90;27.10;;;9.30;81.20;;;;;;4935278;28;20215;-84
2021/03/25 09:26:59;;;;;;;46.83;28.07;;;9.50;81.20;;;;;;4958864;28;20242;-84
2021/03/25 09:29:36;;;;;;;50.50;27.77;;;9.70;80.70;;;;;;4947069;28;20229;-85
2021/03/25 09:32:40;;;;;;;49.50;28.90;;;9.80;80.40;;;;;;4959700;28;20225;-83
2021/03/25 09:35:38;;;;;;;48.13;27.97;;;10.10;80.20;;;;;;4969612;28;20724;-84
2021/03/25 09:38:14;;;;;;;49.13;28.00;;;10.40;80.20;;;;;;5072849;23;20316;-83
2021/03/25 09:40:47;;;;;;;45.30;27.83;;;10.60;79.80;;;;;;4977053;28;20314;-84
2021/03/25 09:43:38;;;;;;;41.13;25.90;;;10.70;78.10;;;;;;4975783;28;20259;-85
2021/03/25 09:46:28;;;;;;;43.73;26.53;;;10.50;77.60;;;;;;4980122;28;20515;-85
2021/03/25 09:49:16;;;;;;;44.90;26.93;;;10.20;77.40;;;;;;4976659;28;20208;-85
2021/03/25 09:51:51;;;;;;;38.77;25.50;;;10.00;77.60;;;;;;4972264;28;20229;-84
2021/03/25 09:54:23;;;;;;;45.10;25.43;;;10.10;77.80;;;;;;4985131;28;20250;-87
2021/03/25 09:57:23;;;;;;;40.33;25.30;;;10.20;77.50;;;;;;4971638;28;20204;-85
2021/03/25 09:59:53;;;;;;;38.47;24.37;;;10.30;77.40;;;;;;4974248;28;20248;-85
2021/03/25 10:02:58;;;;;;;39.33;25.10;;;10.40;77.50;;;;;;4974783;28;20997;-84
2021/03/25 10:05:37;;;;;;;42.13;25.87;;;10.60;77.20;;;;;;4977650;28;20216;-84
2021/03/25 10:08:45;;;;;;;38.47;25.40;;;10.70;76.80;;;;;;4952399;28;20256;-82
2021/03/25 10:11:48;;;;;;;40.47;25.60;;;10.70;76.80;;;;;;4969275;28;20236;-83
2021/03/25 10:14:47;;;;;;;41.77;27.03;;;11.10;76.80;;;;;;4971918;28;20520;-86
2021/03/25 10:17:44;;;;;;;45.63;26.87;;;10.70;76.00;;;;;;4968827;28;20623;-85
2021/03/25 10:20:49;;;;;;;40.37;25.60;;;10.50;76.30;;;;;;4963815;28;20381;-85
2021/03/25 10:23:20;;;;;;;43.33;25.40;;;10.30;76.40;;;;;;4966727;28;20215;-85
2021/03/25 10:25:51;;;;;;;46.40;26.53;;;10.50;76.70;;;;;;4966453;28;20653;-85
2021/03/25 10:28:28;;;;;;;47.17;26.47;;;10.70;76.50;;;;;;4948320;28;20286;-85
2021/03/25 10:30:59;;;;;;;45.13;26.90;;;10.80;75.90;;;;;;4950844;28;20232;-84
2021/03/25 10:33:31;;;;;;;43.87;27.13;;;10.80;75.70;;;;;;4945260;28;20244;-85
2021/03/25 10:36:02;;;;;;;44.60;27.33;;;10.70;76.10;;;;;;4937744;28;20204;-85
2021/03/25 10:41:33;;;;;;;44.13;27.17;;;11.10;75.50;;;;;;4944436;28;20948;-86
2021/03/25 10:44:26;;;;;;;51.27;30.23;;;11.30;75.70;;;;;;4940004;28;20208;-85
2021/03/25 10:47:02;;;;;;;49.07;29.80;;;11.20;75.50;;;;;;4950372;28;20283;-83
2021/03/25 10:49:42;;;;;;;44.03;27.60;;;11.20;75.70;;;;;;4943962;28;20456;-84
2021/03/25 10:52:25;;;;;;;46.80;29.30;;;11.10;75.70;;;;;;4932230;28;20765;-86
2021/03/25 10:54:58;;;;;;;49.00;29.93;;;10.70;75.70;;;;;;4937967;28;20200;-84
2021/03/25 10:57:30;;;;;;;47.80;29.33;;;10.60;76.10;;;;;;4973499;28;20824;-85
2021/03/25 11:00:13;;;;;;;47.53;29.90;;;10.60;76.20;;;;;;4990947;28;20250;-85
2021/03/25 11:02:44;;;;;;;50.03;30.63;;;10.60;76.20;;;;;;4987550;28;20177;-86
2021/03/25 11:05:20;;;;;;;50.77;31.03;;;10.70;76.20;;;;;;4986536;28;20328;-85
2021/03/25 11:07:53;;;;;;;44.83;27.77;;;10.90;76.80;;;;;;4948625;28;20216;-84
2021/03/25 11:10:25;;;;;;;49.60;29.17;;;11.00;76.30;;;;;;4965623;28;20209;-84
2021/03/25 11:13:01;;;;;;;46.67;29.13;;;11.10;76.00;;;;;;4959807;28;20212;-84
2021/03/25 11:15:33;;;;;;;47.63;30.80;;;11.20;76.10;;;;;;4964032;28;20200;-86
2021/03/25 11:18:10;;;;;;;46.43;29.77;;;11.30;76.30;;;;;;4975118;28;20291;-83
2021/03/25 11:20:39;;;;;;;49.67;29.47;;;11.20;75.80;;;;;;4968752;28;20235;-84
2021/03/25 11:23:14;;;;;;;51.57;30.40;;;11.30;75.40;;;;;;4986851;28;20211;-84
2021/03/25 11:25:44;;;;;;;45.90;29.60;;;11.40;75.30;;;;;;4976452;28;20204;-84
2021/03/25 11:28:16;;;;;;;44.77;29.50;;;11.40;75.60;;;;;;4976816;28;20224;-82
2021/03/25 11:30:49;;;;;;;45.40;30.10;;;11.10;75.20;;;;;;4981790;28;20243;-83
2021/03/25 11:33:31;;;;;;;45.40;29.57;;;11.10;75.50;;;;;;4980789;28;20213;-85
2021/03/25 11:36:02;;;;;;;49.53;31.67;;;11.10;75.50;;;;;;4976246;28;20204;-85
2021/03/25 11:38:35;;;;;;;50.53;29.00;;;11.00;75.40;;;;;;4969154;28;20736;-84
2021/03/25 11:41:05;;;;;;;45.47;28.67;;;11.10;75.10;;;;;;4960820;28;20221;-86
2021/03/25 11:43:47;;;;;;;44.03;28.40;;;11.10;74.90;;;;;;4966594;28;20262;-84
2021/03/25 11:46:27;;;;;;;44.07;28.57;;;11.10;75.20;;;;;;4965775;28;20664;-83
2021/03/25 11:49:09;;;;;;;45.60;29.47;;;11.00;74.80;;;;;;4962047;28;20204;-84
2021/03/25 11:51:41;;;;;;;49.03;29.90;;;11.10;75.10;;;;;;4965823;28;20228;-85
2021/03/25 11:54:34;;;;;;;45.40;28.87;;;11.00;74.90;;;;;;4966949;28;20295;-85
2021/03/25 11:57:10;;;;;;;46.90;27.83;;;11.10;75.00;;;;;;4956253;28;20228;-84
2021/03/25 11:59:43;;;;;;;46.93;30.27;;;11.10;74.80;;;;;;4981060;28;20388;-83
2021/03/25 12:02:28;;;;;;;43.97;29.17;;;11.20;75.00;;;;;;4980483;28;20548;-83
2021/03/25 12:04:56;;;;;;;46.77;29.30;;;11.30;74.90;;;;;;4992451;28;20205;-86
2021/03/25 12:07:26;;;;;;;44.10;29.20;;;11.20;75.00;;;;;;4988305;28;20205;-86
2021/03/25 12:10:23;;;;;;;47.90;30.70;;;11.20;75.20;;;;;;4983515;28;20200;-85
2021/03/25 12:12:51;;;;;;;45.30;29.90;;;11.00;74.80;;;;;;4975139;28;20284;-84
2021/03/25 12:15:20;;;;;;;46.00;30.40;;;11.00;74.80;;;;;;4958558;28;20300;-85
2021/03/25 12:17:52;;;;;;;47.83;30.70;;;11.00;75.20;;;;;;4987597;28;20215;-85
2021/03/25 12:20:24;;;;;;;49.43;30.63;;;10.90;75.50;;;;;;4986362;28;20192;-84
2021/03/25 12:23:03;;;;;;;45.97;30.57;;;10.90;75.50;;;;;;4980777;28;20282;-84
2021/03/25 12:25:43;;;;;;;46.80;29.23;;;10.90;75.10;;;;;;4980995;28;20224;-85
2021/03/25 12:28:12;;;;;;;48.37;29.17;;;10.80;75.40;;;;;;4970487;28;20205;-86
2021/03/25 12:30:41;;;;;;;48.63;30.13;;;10.60;75.30;;;;;;4985725;28;20484;-84
2021/03/25 12:33:17;;;;;;;46.10;30.00;;;10.70;75.40;;;;;;4976198;28;20215;-84
2021/03/25 12:35:47;;;;;;;47.63;28.37;;;10.90;75.90;;;;;;4984304;28;20586;-85
2021/03/25 12:38:16;;;;;;;44.73;29.57;;;11.00;75.60;;;;;;4987839;28;20192;-85
2021/03/25 12:40:49;;;;;;;46.37;30.37;;;11.00;75.70;;;;;;4977891;28;20238;-85
2021/03/25 12:43:19;;;;;;;46.37;29.47;;;11.10;75.70;;;;;;4964956;28;20201;-86
2021/03/25 12:45:50;;;;;;;46.87;30.37;;;11.20;75.70;;;;;;4978419;28;20481;-85
2021/03/25 12:48:19;;;;;;;47.57;29.73;;;11.30;75.80;;;;;;4983219;28;20192;-86
2021/03/25 12:50:49;;;;;;;42.90;29.40;;;11.40;75.30;;;;;;4968256;28;20589;-84
2021/03/25 12:53:19;;;;;;;43.47;29.17;;;11.40;74.90;;;;;;4959959;28;20295;-85
2021/03/25 12:55:47;;;;;;;48.07;29.77;;;11.30;75.00;;;;;;4947076;28;20236;-84
2021/03/25 12:58:20;;;;;;;45.23;29.43;;;11.20;75.00;;;;;;4960545;28;20200;-84
2021/03/25 13:00:48;;;;;;;48.17;31.17;;;11.10;75.30;;;;;;4965963;28;20198;-85
2021/03/25 13:03:29;;;;;;;48.47;30.67;;;10.80;75.30;;;;;;4969677;28;20208;-85
2021/03/25 13:05:57;;;;;;;48.57;30.80;;;10.80;75.60;;;;;;4968324;28;20208;-82
2021/03/25 13:08:25;;;;;;;48.20;30.77;;;10.90;75.30;;;;;;4961326;28;20661;-84
2021/03/25 13:11:13;;;;;;;47.93;30.57;;;11.20;75.40;;;;;;4967098;28;20696;-84
2021/03/25 13:13:46;;;;;;;45.10;30.17;;;11.50;75.00;;;;;;4972390;28;20200;-84
2021/03/25 13:16:19;;;;;;;48.80;31.13;;;11.60;74.80;;;;;;4964012;28;20204;-84
2021/03/25 13:18:48;;;;;;;46.50;30.17;;;11.80;74.80;;;;;;4963342;28;20263;-84
2021/03/25 13:21:17;;;;;;;49.07;29.93;;;11.80;74.40;;;;;;4945735;28;20209;-85
2021/03/25 13:23:46;;;;;;;45.47;29.93;;;11.90;74.80;;;;;;4967713;28;20212;-85
2021/03/25 13:26:15;;;;;;;50.30;31.07;;;12.20;74.70;;;;;;4965016;28;20197;-86
2021/03/25 13:28:44;;;;;;;48.40;30.93;;;12.40;74.30;;;;;;4972237;28;20200;-84
2021/03/25 13:31:14;;;;;;;45.93;30.40;;;12.40;73.60;;;;;;4965794;28;20229;-86
2021/03/25 13:33:49;;;;;;;48.53;30.47;;;12.40;73.70;;;;;;4967813;28;20300;-84
2021/03/25 13:36:20;;;;;;;49.93;30.33;;;12.40;74.00;;;;;;4965796;28;20200;-85
2021/03/25 13:38:49;;;;;;;46.90;30.53;;;12.40;74.20;;;;;;4977114;28;20213;-84
2021/03/25 13:41:17;;;;;;;49.73;31.40;;;12.20;73.90;;;;;;4965058;28;20206;-85
2021/03/25 13:43:47;;;;;;;48.77;30.77;;;12.00;74.00;;;;;;4970474;28;20264;-84
2021/03/25 13:46:14;;;;;;;45.63;29.57;;;12.00;74.30;;;;;;4964214;28;20300;-85
2021/03/25 13:48:43;;;;;;;49.33;31.03;;;12.10;74.10;;;;;;4966767;28;20472;-86
2021/03/25 13:51:11;;;;;;;45.30;28.37;;;12.20;74.40;;;;;;4970856;28;20200;-85
2021/03/25 13:53:40;;;;;;;48.37;30.60;;;12.30;74.30;;;;;;4966976;28;20205;-87
2021/03/25 13:56:08;;;;;;;46.53;29.80;;;12.40;74.10;;;;;;4988265;28;20230;-84
2021/03/25 13:58:36;;;;;;;43.93;30.63;;;12.60;73.60;;;;;;4991261;28;20202;-87
2021/03/25 14:01:06;;;;;;;49.70;31.40;;;12.70;73.90;;;;;;4984037;28;20334;-84
2021/03/25 14:03:35;;;;;;;43.03;30.33;;;12.80;73.60;;;;;;4968646;28;20251;-85
2021/03/25 14:06:03;;;;;;;48.17;30.83;;;12.90;73.30;;;;;;4973355;28;20235;-84